Time;durP1;ratioP1;P1;durP2;ratioP2;P2;SDS_P1;SDS_P2;PMS_P1;PMS_P2;Temp;Humidity;BMP_temperature;BMP_pressure;BME280_temperature;BME280_humidity;BME280_pressure;Samples;Min_cycle;Max_cycle;Signal;HPM_P1;HPM_P2
2022/08/22 00:03:02;;;;;;;6.63;4.90;;;;;;;;;;4956507;29;20180;-86
2022/08/22 00:06:38;;;;;;;5.87;5.27;;;;;;;;;;4945413;29;20180;-83
2022/08/22 00:10:03;;;;;;;6.47;5.83;;;;;;;;;;4963343;28;20531;-83
2022/08/22 00:13:14;;;;;;;6.10;5.50;;;;;;;;;;4936932;28;20188;-82
2022/08/22 00:16:27;;;;;;;7.27;5.40;;;;;;;;;;4966500;28;20219;-83
2022/08/22 00:19:44;;;;;;;6.20;5.60;;;;;;;;;;4956152;28;20187;-83
2022/08/22 00:22:57;;;;;;;6.23;4.70;;;;;;;;;;4977599;28;20194;-83
2022/08/22 00:26:21;;;;;;;5.97;5.23;;;;;;;;;;4966656;28;20179;-83
2022/08/22 00:29:33;;;;;;;9.50;5.67;;;;;;;;;;4953813;28;20187;-83
2022/08/22 00:32:43;;;;;;;6.50;5.50;;;;;;;;;;4965431;28;20618;-83
2022/08/22 00:35:50;;;;;;;7.57;5.90;;;;;;;;;;4964869;28;20207;-83
2022/08/22 00:39:17;;;;;;;6.23;5.63;;;;;;;;;;4976266;28;20206;-83
2022/08/22 00:42:44;;;;;;;8.13;6.23;;;;;;;;;;4988402;28;20570;-83
2022/08/22 00:46:06;;;;;;;8.03;6.50;;;;;;;;;;4972934;28;20191;-83
2022/08/22 00:49:39;;;;;;;7.03;6.03;;;;;;;;;;4973731;28;20182;-83
2022/08/22 00:53:02;;;;;;;7.57;6.40;;;;;;;;;;4984831;28;20186;-83
2022/08/22 00:56:16;;;;;;;7.20;6.27;;;;;;;;;;4975589;28;20226;-83
2022/08/22 00:59:38;;;;;;;9.27;6.30;;;;;;;;;;4964180;28;20187;-83
2022/08/22 01:02:42;;;;;;;7.20;6.03;;;;;;;;;;4964357;28;20191;-83
2022/08/22 01:06:21;;;;;;;7.60;6.40;;;;;;;;;;4952821;28;20171;-83
2022/08/22 01:10:02;;;;;;;6.20;5.60;;;;;;;;;;4956992;28;20542;-83
2022/08/22 01:13:28;;;;;;;6.87;6.17;;;;;;;;;;4964327;28;20179;-83
2022/08/22 01:17:00;;;;;;;10.73;5.97;;;;;;;;;;4945588;29;20231;-83
2022/08/22 01:20:29;;;;;;;7.00;6.30;;;;;;;;;;4959307;28;20562;-86
2022/08/22 01:24:07;;;;;;;7.43;6.20;;;;;;;;;;4963126;28;20178;-85
2022/08/22 01:27:33;;;;;;;8.23;6.90;;;;;;;;;;4952578;28;20218;-86
2022/08/22 01:31:00;;;;;;;7.87;6.20;;;;;;;;;;4974474;28;20622;-86
2022/08/22 01:34:22;;;;;;;8.90;6.33;;;;;;;;;;4974389;28;20183;-86
2022/08/22 01:37:53;;;;;;;8.17;6.03;;;;;;;;;;4956120;28;20693;-85
2022/08/22 01:41:22;;;;;;;9.80;6.20;;;;;;;;;;4955872;28;20183;-86
2022/08/22 01:44:38;;;;;;;6.57;5.97;;;;;;;;;;4955841;28;20178;-87
2022/08/22 01:47:53;;;;;;;8.40;6.23;;;;;;;;;;4977830;28;20219;-86
2022/08/22 01:51:25;;;;;;;6.13;5.43;;;;;;;;;;4936411;29;20184;-86
2022/08/22 01:54:35;;;;;;;8.10;6.60;;;;;;;;;;4958080;29;20184;-86
2022/08/22 01:57:53;;;;;;;6.60;5.90;;;;;;;;;;4957846;29;20215;-86
2022/08/22 02:01:09;;;;;;;9.47;6.10;;;;;;;;;;4976345;28;20194;-86
2022/08/22 02:04:32;;;;;;;7.30;5.60;;;;;;;;;;4956224;29;20195;-86
2022/08/22 02:07:59;;;;;;;6.17;5.53;;;;;;;;;;4946719;29;20215;-86
2022/08/22 02:11:10;;;;;;;7.73;6.07;;;;;;;;;;4936323;29;20246;-86
2022/08/22 02:14:35;;;;;;;7.20;6.07;;;;;;;;;;4957647;29;20191;-86
2022/08/22 02:18:03;;;;;;;9.80;6.07;;;;;;;;;;4947975;29;20239;-86
2022/08/22 02:21:14;;;;;;;6.67;5.97;;;;;;;;;;4946676;29;20183;-87
2022/08/22 02:24:28;;;;;;;7.73;6.13;;;;;;;;;;4957635;28;20188;-86
2022/08/22 02:27:57;;;;;;;7.00;6.20;;;;;;;;;;4958320;28;20563;-86
2022/08/22 02:31:06;;;;;;;8.47;6.57;;;;;;;;;;4947055;29;20183;-87
2022/08/22 02:34:22;;;;;;;6.87;6.17;;;;;;;;;;4946236;29;20635;-86
2022/08/22 02:38:06;;;;;;;6.43;5.83;;;;;;;;;;4957086;29;20560;-87
2022/08/22 02:41:23;;;;;;;8.07;6.30;;;;;;;;;;4940831;28;20199;-86
2022/08/22 02:44:35;;;;;;;7.10;6.17;;;;;;;;;;4954519;28;20187;-86
2022/08/22 02:47:58;;;;;;;9.93;6.90;;;;;;;;;;4954638;28;20214;-82
2022/08/22 02:51:38;;;;;;;8.30;6.30;;;;;;;;;;4965821;28;20198;-85
2022/08/22 02:54:56;;;;;;;7.53;6.57;;;;;;;;;;4965236;28;20634;-86
2022/08/22 02:58:18;;;;;;;8.30;6.57;;;;;;;;;;4934910;29;20690;-87
2022/08/22 03:01:32;;;;;;;7.20;6.50;;;;;;;;;;4975464;28;20214;-87
2022/08/22 03:04:39;;;;;;;9.60;6.40;;;;;;;;;;4945777;29;20192;-86
2022/08/22 03:07:51;;;;;;;10.07;6.20;;;;;;;;;;4961644;28;20214;-86
2022/08/22 03:11:17;;;;;;;8.03;6.37;;;;;;;;;;4965053;28;20538;-86
2022/08/22 03:14:30;;;;;;;7.93;5.77;;;;;;;;;;4962069;28;20199;-87
2022/08/22 03:18:05;;;;;;;7.27;6.23;;;;;;;;;;4976245;28;20218;-86
2022/08/22 03:21:29;;;;;;;8.57;6.10;;;;;;;;;;4977960;28;20515;-83
2022/08/22 03:24:48;;;;;;;7.57;6.40;;;;;;;;;;4966211;28;20183;-82
2022/08/22 03:28:06;;;;;;;8.07;6.90;;;;;;;;;;4988242;28;20219;-83
2022/08/22 03:31:21;;;;;;;7.73;6.63;;;;;;;;;;4977642;28;20183;-83
2022/08/22 03:34:25;;;;;;;7.40;6.70;;;;;;;;;;4956969;29;20199;-83
2022/08/22 03:37:36;;;;;;;7.13;6.43;;;;;;;;;;4946736;29;20686;-82
2022/08/22 03:40:54;;;;;;;6.50;5.90;;;;;;;;;;4957036;29;20630;-83
2022/08/22 03:44:25;;;;;;;11.40;6.90;;;;;;;;;;4973097;28;20195;-85
2022/08/22 03:48:24;;;;;;;7.53;6.67;;;;;;;;;;4962591;28;20222;-85
2022/08/22 03:51:56;;;;;;;8.10;6.87;;;;;;;;;;4963583;29;20183;-83
2022/08/22 03:55:19;;;;;;;8.00;7.20;;;;;;;;;;4964367;29;20199;-87
2022/08/22 03:58:35;;;;;;;8.00;7.20;;;;;;;;;;4952719;28;20183;-86
2022/08/22 04:02:04;;;;;;;8.13;7.33;;;;;;;;;;4963597;29;20184;-87
2022/08/22 04:05:40;;;;;;;8.93;6.40;;;;;;;;;;4956672;28;20179;-83
2022/08/22 04:09:10;;;;;;;8.10;6.97;;;;;;;;;;4985434;28;20202;-83
2022/08/22 04:12:52;;;;;;;7.90;6.30;;;;;;;;;;4970331;28;20187;-83
2022/08/22 04:16:25;;;;;;;9.63;7.53;;;;;;;;;;4952515;29;20250;-83
2022/08/22 04:20:03;;;;;;;12.20;8.10;;;;;;;;;;4951827;29;20183;-83
2022/08/22 04:23:27;;;;;;;9.70;7.40;;;;;;;;;;4950764;29;20183;-83
2022/08/22 04:26:51;;;;;;;11.67;8.20;;;;;;;;;;4977859;28;20685;-82
2022/08/22 04:30:05;;;;;;;11.37;7.67;;;;;;;;;;4974858;28;20182;-83
2022/08/22 04:33:25;;;;;;;10.03;8.33;;;;;;;;;;4984980;28;20178;-85
2022/08/22 04:36:53;;;;;;;9.17;7.47;;;;;;;;;;4945022;29;20227;-86
2022/08/22 04:40:23;;;;;;;8.47;7.50;;;;;;;;;;4966665;28;20179;-86
2022/08/22 04:43:35;;;;;;;8.53;7.37;;;;;;;;;;4967202;28;20184;-86
2022/08/22 04:46:58;;;;;;;9.13;7.60;;;;;;;;;;4944789;29;20211;-86
2022/08/22 04:50:23;;;;;;;9.60;7.73;;;;;;;;;;4967497;28;20183;-85
2022/08/22 04:54:01;;;;;;;8.77;7.60;;;;;;;;;;4967616;28;20180;-84
2022/08/22 04:57:32;;;;;;;9.10;7.90;;;;;;;;;;4980114;23;20234;-85
2022/08/22 05:00:55;;;;;;;8.90;8.03;;;;;;;;;;4980350;28;20205;-84
2022/08/22 05:04:21;;;;;;;10.00;8.57;;;;;;;;;;4994613;28;20645;-85
2022/08/22 05:07:34;;;;;;;11.17;8.60;;;;;;;;;;4977139;28;20226;-86
2022/08/22 05:10:45;;;;;;;8.90;7.57;;;;;;;;;;4986438;28;20534;-84
2022/08/22 05:14:07;;;;;;;8.90;6.93;;;;;;;;;;4968460;28;20199;-85
2022/08/22 05:17:21;;;;;;;7.80;6.93;;;;;;;;;;4983135;28;20222;-84
2022/08/22 05:20:27;;;;;;;7.57;6.50;;;;;;;;;;4970763;28;20194;-81
2022/08/22 05:23:42;;;;;;;7.27;6.50;;;;;;;;;;4995026;28;20178;-81
2022/08/22 05:26:54;;;;;;;6.50;5.90;;;;;;;;;;4981857;28;20214;-84
2022/08/22 05:30:12;;;;;;;6.67;5.70;;;;;;;;;;4988137;28;20556;-81
2022/08/22 05:33:22;;;;;;;6.57;5.87;;;;;;;;;;4989371;28;20178;-81
2022/08/22 05:36:29;;;;;;;6.40;5.60;;;;;;;;;;4988312;28;20229;-81
2022/08/22 05:39:33;;;;;;;9.00;5.90;;;;;;;;;;4999407;28;20190;-81
2022/08/22 05:42:37;;;;;;;7.50;5.87;;;;;;;;;;4999675;28;20186;-81
2022/08/22 05:45:45;;;;;;;8.57;5.53;;;;;;;;;;4977903;28;20181;-81
2022/08/22 05:48:56;;;;;;;5.93;5.20;;;;;;;;;;4998706;28;20178;-82
2022/08/22 05:52:34;;;;;;;6.60;5.47;;;;;;;;;;4998439;28;20186;-82
2022/08/22 05:56:06;;;;;;;7.73;5.60;;;;;;;;;;4986503;28;20183;-83
2022/08/22 05:59:28;;;;;;;5.93;5.30;;;;;;;;;;4986236;28;20186;-83
2022/08/22 06:03:00;;;;;;;6.20;5.60;;;;;;;;;;5004399;28;20194;-85
2022/08/22 06:06:14;;;;;;;7.37;6.47;;;;;;;;;;4994799;28;20193;-83
2022/08/22 06:09:28;;;;;;;6.10;5.47;;;;;;;;;;5025970;28;20186;-85
2022/08/22 06:12:41;;;;;;;7.70;6.07;;;;;;;;;;4974032;28;20208;-85
2022/08/22 06:16:08;;;;;;;7.60;6.90;;;;;;;;;;4997085;28;20182;-86
2022/08/22 06:19:16;;;;;;;7.20;6.50;;;;;;;;;;4985977;28;20637;-86
2022/08/22 06:22:24;;;;;;;7.57;6.70;;;;;;;;;;4995838;28;20194;-85
2022/08/22 06:25:34;;;;;;;8.10;7.10;;;;;;;;;;4996580;28;20198;-84
2022/08/22 06:28:41;;;;;;;11.93;7.63;;;;;;;;;;4974379;28;20530;-84
2022/08/22 06:31:47;;;;;;;7.17;6.47;;;;;;;;;;4979936;28;20206;-84
2022/08/22 06:34:57;;;;;;;6.60;5.97;;;;;;;;;;5002219;28;20194;-84
2022/08/22 06:38:02;;;;;;;8.87;6.63;;;;;;;;;;5007042;28;20218;-83
2022/08/22 06:41:07;;;;;;;7.00;6.20;;;;;;;;;;4997350;28;20194;-86
2022/08/22 06:44:16;;;;;;;7.53;6.73;;;;;;;;;;4997384;28;20190;-86
2022/08/22 06:47:44;;;;;;;9.73;6.17;;;;;;;;;;4996357;28;20214;-85
2022/08/22 06:50:53;;;;;;;9.47;7.33;;;;;;;;;;4989708;28;20186;-86
2022/08/22 06:54:03;;;;;;;7.93;6.73;;;;;;;;;;4985917;28;20182;-86
2022/08/22 06:57:27;;;;;;;8.03;6.47;;;;;;;;;;4996388;28;20217;-86
2022/08/22 07:00:33;;;;;;;7.80;7.00;;;;;;;;;;4984455;28;20202;-86
2022/08/22 07:03:48;;;;;;;7.93;7.13;;;;;;;;;;4985436;28;20174;-86
2022/08/22 07:06:54;;;;;;;8.37;7.47;;;;;;;;;;4985010;28;20210;-85
2022/08/22 07:09:59;;;;;;;8.43;6.87;;;;;;;;;;4995760;28;20202;-86
2022/08/22 07:13:07;;;;;;;7.03;6.33;;;;;;;;;;5007079;28;20194;-85
2022/08/22 07:16:11;;;;;;;7.37;6.63;;;;;;;;;;4987834;28;21590;-85
2022/08/22 07:19:34;;;;;;;10.00;7.00;;;;;;;;;;4967093;28;20191;-85
2022/08/22 07:22:39;;;;;;;7.10;5.90;;;;;;;;;;4996064;28;20538;-86
2022/08/22 07:25:57;;;;;;;6.83;5.60;;;;;;;;;;4995511;28;20186;-86
2022/08/22 07:29:29;;;;;;;7.97;5.70;;;;;;;;;;4996174;28;20194;-86
2022/08/22 07:32:48;;;;;;;6.73;5.10;;;;;;;;;;4997059;28;20202;-86
2022/08/22 07:36:05;;;;;;;6.87;4.67;;;;;;;;;;4984390;28;20198;-85
2022/08/22 07:39:27;;;;;;;5.50;4.27;;;;;;;;;;4995722;28;20198;-85
2022/08/22 07:42:43;;;;;;;5.67;4.40;;;;;;;;;;4965251;28;20183;-86
2022/08/22 07:45:55;;;;;;;4.47;3.37;;;;;;;;;;4986994;28;20179;-86
2022/08/22 07:49:15;;;;;;;4.17;3.20;;;;;;;;;;4959663;28;20186;-85
2022/08/22 07:52:21;;;;;;;6.73;2.97;;;;;;;;;;4983779;28;20182;-86
2022/08/22 07:55:26;;;;;;;4.90;2.80;;;;;;;;;;4986838;28;20210;-86
2022/08/22 07:58:32;;;;;;;6.40;2.87;;;;;;;;;;4972990;28;20190;-86
2022/08/22 08:01:38;;;;;;;3.80;2.77;;;;;;;;;;4983821;28;20645;-86
2022/08/22 08:04:42;;;;;;;6.27;2.87;;;;;;;;;;4964169;28;20175;-86
2022/08/22 08:07:47;;;;;;;6.33;2.97;;;;;;;;;;4967346;28;20218;-86
2022/08/22 08:10:55;;;;;;;6.47;2.80;;;;;;;;;;4972191;28;20194;-87
2022/08/22 08:14:04;;;;;;;9.50;3.10;;;;;;;;;;4982693;28;20194;-86
2022/08/22 08:17:27;;;;;;;5.83;2.60;;;;;;;;;;4982094;28;20222;-86
2022/08/22 08:20:34;;;;;;;4.07;2.20;;;;;;;;;;4983190;28;20191;-86
2022/08/22 08:23:44;;;;;;;4.90;2.60;;;;;;;;;;4982803;28;20190;-86
2022/08/22 08:30:22;;;;;;;7.50;4.63;;;;;;;;;;4995409;28;20184;-87
2022/08/22 08:33:30;;;;;;;6.07;2.20;;;;;;;;;;4982607;28;20189;-86
2022/08/22 08:36:50;;;;;;;6.73;2.10;;;;;;;;;;4982739;28;20561;-85
2022/08/22 08:39:58;;;;;;;4.87;1.87;;;;;;;;;;4963462;28;20194;-86
2022/08/22 08:43:27;;;;;;;2.63;1.60;;;;;;;;;;4975441;28;20530;-86
2022/08/22 08:46:56;;;;;;;6.75;2.25;;;;;;;;;;4975059;28;20225;-87
2022/08/22 08:50:25;;;;;;;5.57;1.70;;;;;;;;;;4964194;28;20619;-89
2022/08/22 08:53:55;;;;;;;6.45;1.55;;;;;;;;;;4980076;28;20199;-86
2022/08/22 08:57:13;;;;;;;4.95;1.60;;;;;;;;;;4996529;28;20232;-87
2022/08/22 09:00:46;;;;;;;5.80;1.63;;;;;;;;;;5005857;28;20637;-87
2022/08/22 09:04:08;;;;;;;4.03;1.60;;;;;;;;;;4982617;28;20542;-87
2022/08/22 09:07:41;;;;;;;2.92;1.45;;;;;;;;;;4982482;28;20224;-87
2022/08/22 09:11:03;;;;;;;3.35;1.40;;;;;;;;;;4979740;28;20186;-87
2022/08/22 09:14:30;;;;;;;2.53;1.33;;;;;;;;;;4982418;28;20177;-86
2022/08/22 09:18:08;;;;;;;3.10;1.58;;;;;;;;;;4993901;28;20222;-87
2022/08/22 09:21:18;;;;;;;3.53;1.40;;;;;;;;;;4993589;28;20541;-87
2022/08/22 09:24:31;;;;;;;4.13;1.17;;;;;;;;;;4981953;28;20192;-87
2022/08/22 09:28:05;;;;;;;3.67;1.38;;;;;;;;;;4983329;28;20216;-87
2022/08/22 09:31:16;;;;;;;8.50;1.50;;;;;;;;;;4992665;28;20192;-87
2022/08/22 09:34:29;;;;;;;3.45;1.23;;;;;;;;;;4981802;28;20206;-87
2022/08/22 09:37:40;;;;;;;3.40;1.38;;;;;;;;;;4981880;28;20226;-87
2022/08/22 09:41:00;;;;;;;6.03;1.25;;;;;;;;;;4976313;28;20195;-87
2022/08/22 09:44:23;;;;;;;3.63;1.30;;;;;;;;;;4978170;28;20183;-87
2022/08/22 09:47:45;;;;;;;4.45;1.30;;;;;;;;;;4988118;28;20214;-87
2022/08/22 09:51:00;;;;;;;1.80;1.10;;;;;;;;;;4985993;28;20535;-87
2022/08/22 09:54:09;;;;;;;2.03;1.10;;;;;;;;;;5013149;28;20186;-86
2022/08/22 09:57:25;;;;;;;5.32;1.27;;;;;;;;;;5002904;28;20218;-87
2022/08/22 10:00:51;;;;;;;2.88;1.48;;;;;;;;;;4991032;28;20207;-86
2022/08/22 10:04:26;;;;;;;6.18;1.20;;;;;;;;;;5005188;28;20631;-86
2022/08/22 10:07:46;;;;;;;2.60;1.30;;;;;;;;;;5003291;28;20219;-87
2022/08/22 10:11:17;;;;;;;2.35;1.20;;;;;;;;;;4979654;28;20206;-86
2022/08/22 10:14:40;;;;;;;3.35;1.10;;;;;;;;;;4970413;28;20191;-86
2022/08/22 10:18:08;;;;;;;4.90;1.20;;;;;;;;;;4969862;28;20564;-87
2022/08/22 10:21:17;;;;;;;4.43;1.40;;;;;;;;;;4969382;28;20191;-87
2022/08/22 10:24:33;;;;;;;4.68;1.30;;;;;;;;;;4957225;28;20179;-87
2022/08/22 10:28:13;;;;;;;4.03;1.40;;;;;;;;;;4978809;28;20206;-86
2022/08/22 10:31:20;;;;;;;4.07;1.50;;;;;;;;;;5009825;28;20190;-87
2022/08/22 10:34:35;;;;;;;3.15;1.33;;;;;;;;;;4986166;28;20186;-87
2022/08/22 10:37:53;;;;;;;3.92;1.60;;;;;;;;;;4977768;28;20215;-87
2022/08/22 10:41:10;;;;;;;3.15;1.17;;;;;;;;;;4977306;28;20650;-87
2022/08/22 10:44:18;;;;;;;3.00;1.23;;;;;;;;;;4988824;28;20207;-86
2022/08/22 10:47:34;;;;;;;3.65;1.23;;;;;;;;;;4983312;28;20222;-85
2022/08/22 10:50:43;;;;;;;5.00;1.52;;;;;;;;;;5004289;28;20195;-87
2022/08/22 10:54:00;;;;;;;3.95;1.70;;;;;;;;;;4977224;28;20548;-87
2022/08/22 10:57:28;;;;;;;3.05;1.45;;;;;;;;;;4982446;28;20238;-87
2022/08/22 11:00:58;;;;;;;3.70;1.23;;;;;;;;;;4990241;28;20206;-86
2022/08/22 11:04:25;;;;;;;2.35;1.27;;;;;;;;;;5006840;28;20198;-86
2022/08/22 11:07:47;;;;;;;3.55;1.23;;;;;;;;;;4995119;28;20211;-86
2022/08/22 11:11:05;;;;;;;4.43;1.55;;;;;;;;;;4984243;28;20199;-86
2022/08/22 11:14:16;;;;;;;3.60;1.38;;;;;;;;;;4987772;28;20192;-86
2022/08/22 11:17:52;;;;;;;3.95;1.40;;;;;;;;;;4965063;28;20219;-86
2022/08/22 11:21:32;;;;;;;3.72;1.27;;;;;;;;;;4976002;28;20179;-85
2022/08/22 11:24:58;;;;;;;3.03;1.58;;;;;;;;;;4938512;28;20633;-87
2022/08/22 11:28:49;;;;;;;2.58;1.27;;;;;;;;;;4964802;28;20211;-86
2022/08/22 11:32:08;;;;;;;4.28;1.65;;;;;;;;;;4977964;28;20206;-86
2022/08/22 11:35:27;;;;;;;2.97;1.60;;;;;;;;;;4984624;28;20190;-86
2022/08/22 11:38:38;;;;;;;3.25;1.48;;;;;;;;;;4983704;28;20214;-86
2022/08/22 11:41:46;;;;;;;8.95;1.65;;;;;;;;;;4984179;28;20194;-86
2022/08/22 11:44:59;;;;;;;4.35;1.30;;;;;;;;;;4994896;28;20187;-86
2022/08/22 11:48:21;;;;;;;3.47;1.80;;;;;;;;;;4975164;28;20223;-86
2022/08/22 11:51:47;;;;;;;5.55;1.38;;;;;;;;;;4953796;28;20187;-86
2022/08/22 11:54:52;;;;;;;6.53;1.92;;;;;;;;;;4995504;28;20521;-86
2022/08/22 11:58:01;;;;;;;46.72;29.75;;;;;;;;;;4994900;28;20230;-86
2022/08/22 12:01:17;;;;;;;8.10;5.47;;;;;;;;;;4975643;28;20195;-86
2022/08/22 12:04:32;;;;;;;3.42;1.58;;;;;;;;;;4977698;28;20198;-82
2022/08/22 12:07:42;;;;;;;3.97;1.75;;;;;;;;;;4984603;28;20226;-82
2022/08/22 12:10:54;;;;;;;5.75;1.52;;;;;;;;;;4985211;28;20191;-81
2022/08/22 12:14:01;;;;;;;5.20;1.60;;;;;;;;;;4995800;28;20187;-83
2022/08/22 12:17:33;;;;;;;5.00;1.63;;;;;;;;;;4983586;28;20210;-84
2022/08/22 12:20:43;;;;;;;3.55;1.50;;;;;;;;;;4994335;28;20179;-82
2022/08/22 12:24:05;;;;;;;4.03;1.50;;;;;;;;;;4983792;28;20186;-82
2022/08/22 12:27:44;;;;;;;6.18;1.50;;;;;;;;;;4994447;28;20226;-84
2022/08/22 12:31:21;;;;;;;3.30;1.25;;;;;;;;;;5005858;28;20183;-82
2022/08/22 12:34:44;;;;;;;3.75;1.33;;;;;;;;;;5005508;28;20183;-82
2022/08/22 12:38:15;;;;;;;3.45;1.10;;;;;;;;;;4975317;28;20569;-82
2022/08/22 12:41:36;;;;;;;4.20;2.25;;;;;;;;;;4992182;28;20669;-83
2022/08/22 12:45:06;;;;;;;1.75;1.40;;;;;;;;;;4984049;28;20187;-83
2022/08/22 12:48:20;;;;;;;5.18;1.05;;;;;;;;;;4964623;28;20215;-82
2022/08/22 12:51:48;;;;;;;1.80;1.30;;;;;;;;;;4964611;28;20187;-82
2022/08/22 12:55:10;;;;;;;1.90;1.00;;;;;;;;;;4974997;28;20524;-82
2022/08/22 12:58:52;;;;;;;2.45;1.20;;;;;;;;;;4991365;28;20231;-82
2022/08/22 13:02:01;;;;;;;2.25;1.17;;;;;;;;;;4982142;28;20211;-82
2022/08/22 13:05:13;;;;;;;3.90;2.00;;;;;;;;;;4983361;28;20183;-82
2022/08/22 13:08:28;;;;;;;3.30;1.20;;;;;;;;;;5005598;28;20214;-82
2022/08/22 13:11:37;;;;;;;3.33;1.20;;;;;;;;;;4974920;28;20199;-82
2022/08/22 13:14:44;;;;;;;2.08;0.93;;;;;;;;;;4964228;28;20192;-83
2022/08/22 13:17:53;;;;;;;3.42;1.20;;;;;;;;;;4985599;28;20215;-83
2022/08/22 13:21:02;;;;;;;5.35;1.30;;;;;;;;;;4970484;28;20202;-83
2022/08/22 13:24:13;;;;;;;5.65;1.17;;;;;;;;;;4951800;28;20180;-83
2022/08/22 13:27:42;;;;;;;3.03;1.20;;;;;;;;;;4974626;28;20211;-83
2022/08/22 13:30:51;;;;;;;2.22;1.20;;;;;;;;;;4974304;28;20179;-83
2022/08/22 13:34:03;;;;;;;2.47;1.10;;;;;;;;;;4978237;28;20187;-83
2022/08/22 13:37:14;;;;;;;9.13;1.38;;;;;;;;;;4977784;28;20218;-86
2022/08/22 13:40:28;;;;;;;3.47;1.00;;;;;;;;;;4959352;28;20642;-85
2022/08/22 13:44:04;;;;;;;1.13;0.82;;;;;;;;;;4977776;28;20191;-85
2022/08/22 13:47:12;;;;;;;8.18;1.30;;;;;;;;;;4977728;28;20227;-86
2022/08/22 13:50:21;;;;;;;3.55;1.05;;;;;;;;;;4977233;28;20195;-86
2022/08/22 13:53:49;;;;;;;2.55;1.30;;;;;;;;;;4966668;28;20199;-86
2022/08/22 13:57:27;;;;;;;3.85;1.00;;;;;;;;;;4977598;28;20234;-87
2022/08/22 14:00:34;;;;;;;3.50;1.20;;;;;;;;;;4977534;28;20515;-87
2022/08/22 14:03:56;;;;;;;4.13;1.40;;;;;;;;;;5000100;28;20210;-87
2022/08/22 14:07:03;;;;;;;4.53;1.30;;;;;;;;;;4985648;28;20226;-87
2022/08/22 14:10:16;;;;;;;5.28;1.20;;;;;;;;;;4997086;28;20182;-87
2022/08/22 14:13:34;;;;;;;6.50;1.40;;;;;;;;;;4996595;28;20181;-87
2022/08/22 14:16:52;;;;;;;2.38;0.95;;;;;;;;;;4997036;28;20564;-87
2022/08/22 14:20:02;;;;;;;3.00;1.58;;;;;;;;;;4984775;28;20218;-87
2022/08/22 14:23:21;;;;;;;3.70;1.45;;;;;;;;;;4985255;28;20189;-86
2022/08/22 14:26:29;;;;;;;2.67;1.20;;;;;;;;;;4996085;28;20220;-86
2022/08/22 14:29:53;;;;;;;2.72;1.58;;;;;;;;;;4986437;28;20186;-86
2022/08/22 14:33:16;;;;;;;3.08;1.20;;;;;;;;;;5007520;28;20531;-86
2022/08/22 14:36:25;;;;;;;2.05;1.20;;;;;;;;;;4985183;28;20216;-86
2022/08/22 14:39:44;;;;;;;1.40;1.15;;;;;;;;;;4985211;28;20542;-86
2022/08/22 14:43:05;;;;;;;2.22;1.27;;;;;;;;;;4984833;28;20187;-86
2022/08/22 14:46:17;;;;;;;7.38;1.17;;;;;;;;;;4996465;28;20182;-86
2022/08/22 14:49:29;;;;;;;2.25;1.48;;;;;;;;;;4996568;28;20651;-86
2022/08/22 14:52:47;;;;;;;3.85;1.20;;;;;;;;;;4996133;28;20538;-86
2022/08/22 14:56:03;;;;;;;1.92;1.25;;;;;;;;;;4985150;28;20190;-87
2022/08/22 14:59:11;;;;;;;2.75;1.50;;;;;;;;;;4997311;28;20217;-86
2022/08/22 15:02:31;;;;;;;2.08;1.33;;;;;;;;;;4984858;28;20641;-86
2022/08/22 15:05:44;;;;;;;2.72;1.23;;;;;;;;;;4985285;28;20190;-86
2022/08/22 15:08:49;;;;;;;4.65;1.20;;;;;;;;;;4984087;28;20190;-85
2022/08/22 15:11:53;;;;;;;2.63;1.40;;;;;;;;;;4964673;28;20204;-85
2022/08/22 15:15:01;;;;;;;3.83;1.48;;;;;;;;;;4964915;28;20551;-85
2022/08/22 15:18:32;;;;;;;2.17;1.40;;;;;;;;;;4993392;28;20221;-86
2022/08/22 15:21:36;;;;;;;3.42;1.20;;;;;;;;;;4998226;28;20668;-86
2022/08/22 15:25:26;;;;;;;2.13;1.50;;;;;;;;;;5008257;28;20205;-86
2022/08/22 15:28:35;;;;;;;6.05;1.55;;;;;;;;;;4996339;28;20183;-86
2022/08/22 15:31:40;;;;;;;2.47;1.55;;;;;;;;;;4979253;28;20179;-86
2022/08/22 15:34:46;;;;;;;7.83;1.83;;;;;;;;;;5003382;28;20181;-82
2022/08/22 15:38:00;;;;;;;4.57;1.40;;;;;;;;;;5004278;28;20695;-87
2022/08/22 15:41:37;;;;;;;4.17;1.53;;;;;;;;;;4992353;28;20173;-88
2022/08/22 15:44:45;;;;;;;11.20;1.90;;;;;;;;;;4991290;28;20638;-88
2022/08/22 15:47:52;;;;;;;4.67;2.00;;;;;;;;;;5000489;28;20214;-89
2022/08/22 15:51:03;;;;;;;4.30;1.53;;;;;;;;;;5000373;28;20511;-89
2022/08/22 15:54:10;;;;;;;2.13;1.43;;;;;;;;;;4987064;28;20541;-88
2022/08/22 15:57:25;;;;;;;2.80;1.40;;;;;;;;;;4986831;28;20233;-88
2022/08/22 16:01:01;;;;;;;1.73;1.40;;;;;;;;;;4997703;28;20203;-87
2022/08/22 16:04:11;;;;;;;2.20;1.30;;;;;;;;;;4986283;28;20192;-87
2022/08/22 16:07:37;;;;;;;3.50;1.30;;;;;;;;;;4985031;28;20222;-87
2022/08/22 16:11:04;;;;;;;2.83;1.40;;;;;;;;;;4995990;28;20184;-87
2022/08/22 16:14:17;;;;;;;2.93;1.37;;;;;;;;;;5001370;28;20180;-87
2022/08/22 16:17:24;;;;;;;1.67;1.27;;;;;;;;;;4984357;28;20699;-87
2022/08/22 16:20:28;;;;;;;5.43;1.27;;;;;;;;;;4985341;28;20218;-87
2022/08/22 16:23:47;;;;;;;3.43;1.60;;;;;;;;;;4996781;28;20185;-87
2022/08/22 16:26:52;;;;;;;5.93;1.27;;;;;;;;;;4996945;28;20223;-87
2022/08/22 16:30:05;;;;;;;4.17;1.47;;;;;;;;;;4985452;28;20174;-87
2022/08/22 16:33:10;;;;;;;3.03;1.20;;;;;;;;;;4984498;28;20194;-87
2022/08/22 16:36:46;;;;;;;2.33;1.60;;;;;;;;;;4983764;28;20214;-87
2022/08/22 16:40:06;;;;;;;2.57;1.33;;;;;;;;;;4993842;28;20214;-88
2022/08/22 16:43:15;;;;;;;4.87;1.50;;;;;;;;;;4973116;28;20186;-87
2022/08/22 16:46:28;;;;;;;5.23;1.17;;;;;;;;;;4983663;28;20219;-87
2022/08/22 16:49:37;;;;;;;2.63;1.50;;;;;;;;;;4983895;28;20178;-88
2022/08/22 16:53:12;;;;;;;2.50;1.43;;;;;;;;;;4971396;28;20197;-87
2022/08/22 16:56:47;;;;;;;3.73;1.10;;;;;;;;;;4993988;28;20223;-88
2022/08/22 17:00:13;;;;;;;1.73;1.00;;;;;;;;;;5005449;28;20554;-87
2022/08/22 17:03:43;;;;;;;2.03;0.80;;;;;;;;;;4990217;28;20187;-87
2022/08/22 17:07:03;;;;;;;2.67;1.00;;;;;;;;;;4974751;28;20563;-87
2022/08/22 17:10:29;;;;;;;1.20;0.90;;;;;;;;;;4952966;28;20634;-87
2022/08/22 17:13:48;;;;;;;2.50;1.10;;;;;;;;;;4963611;28;20191;-87
2022/08/22 17:17:22;;;;;;;1.67;0.90;;;;;;;;;;4961271;28;20219;-87
2022/08/22 17:21:02;;;;;;;3.73;1.10;;;;;;;;;;4980169;28;20214;-87
2022/08/22 17:24:14;;;;;;;2.00;1.07;;;;;;;;;;4971261;28;20198;-86
2022/08/22 17:27:31;;;;;;;3.27;1.00;;;;;;;;;;4982422;28;20209;-87
2022/08/22 17:31:08;;;;;;;1.60;1.13;;;;;;;;;;4982681;28;20187;-87
2022/08/22 17:34:36;;;;;;;3.53;0.80;;;;;;;;;;4946371;28;20198;-87
2022/08/22 17:38:01;;;;;;;2.90;1.00;;;;;;;;;;4994981;28;20217;-87
2022/08/22 17:41:10;;;;;;;2.20;1.10;;;;;;;;;;4982782;28;20669;-86
2022/08/22 17:44:25;;;;;;;2.07;1.00;;;;;;;;;;4963292;28;20183;-86
2022/08/22 17:47:38;;;;;;;1.70;1.00;;;;;;;;;;4984667;28;20571;-86
2022/08/22 17:50:57;;;;;;;2.10;1.10;;;;;;;;;;4985461;28;20199;-87
2022/08/22 17:54:35;;;;;;;2.17;1.00;;;;;;;;;;4993869;28;20186;-86
2022/08/22 17:57:52;;;;;;;3.93;1.10;;;;;;;;;;4993695;28;20225;-87
2022/08/22 18:01:05;;;;;;;2.23;1.00;;;;;;;;;;4993899;28;20202;-86
2022/08/22 18:04:27;;;;;;;2.20;1.13;;;;;;;;;;4982597;28;20187;-86
2022/08/22 18:07:39;;;;;;;1.80;1.20;;;;;;;;;;4982876;28;20222;-86
2022/08/22 18:11:22;;;;;;;1.20;0.80;;;;;;;;;;4982545;28;20178;-86
2022/08/22 18:14:29;;;;;;;1.50;0.90;;;;;;;;;;4977237;28;20183;-86
2022/08/22 18:17:39;;;;;;;3.63;1.07;;;;;;;;;;4983091;28;20704;-86
2022/08/22 18:21:18;;;;;;;1.30;0.90;;;;;;;;;;4966997;28;20210;-85
2022/08/22 18:25:00;;;;;;;2.63;1.10;;;;;;;;;;4964248;28;20207;-86
2022/08/22 18:28:13;;;;;;;1.90;1.20;;;;;;;;;;4980575;28;20693;-86
2022/08/22 18:31:44;;;;;;;4.20;1.10;;;;;;;;;;4986027;28;20178;-86
2022/08/22 18:34:58;;;;;;;5.20;1.23;;;;;;;;;;4976897;28;20175;-85
2022/08/22 18:38:15;;;;;;;2.90;1.10;;;;;;;;;;4977264;28;20558;-85
2022/08/22 18:41:44;;;;;;;3.00;1.10;;;;;;;;;;4977054;28;20215;-86
2022/08/22 18:44:48;;;;;;;2.93;1.10;;;;;;;;;;4976641;28;20535;-86
2022/08/22 18:47:54;;;;;;;2.73;1.10;;;;;;;;;;4973578;28;20221;-86
2022/08/22 18:51:30;;;;;;;3.40;1.23;;;;;;;;;;4996693;28;20585;-86
2022/08/22 18:55:07;;;;;;;5.57;1.20;;;;;;;;;;4986977;28;20187;-88
2022/08/22 18:58:32;;;;;;;2.23;1.13;;;;;;;;;;4985119;28;20700;-85
2022/08/22 19:02:13;;;;;;;2.67;1.20;;;;;;;;;;4984702;28;20209;-84
2022/08/22 19:05:59;;;;;;;2.27;1.20;;;;;;;;;;4966056;28;20183;-82
2022/08/22 19:09:20;;;;;;;2.17;1.13;;;;;;;;;;4955045;28;20175;-83
2022/08/22 19:12:40;;;;;;;3.10;1.33;;;;;;;;;;4976854;28;20179;-83
2022/08/22 19:16:05;;;;;;;2.33;1.40;;;;;;;;;;4966621;28;20531;-84
2022/08/22 19:19:21;;;;;;;2.87;1.20;;;;;;;;;;4967029;28;20188;-84
2022/08/22 19:22:28;;;;;;;2.53;1.50;;;;;;;;;;4965203;28;20211;-83
2022/08/22 19:25:32;;;;;;;2.57;1.47;;;;;;;;;;4976190;28;20183;-83
2022/08/22 19:28:37;;;;;;;2.20;1.50;;;;;;;;;;4965786;28;20186;-83
2022/08/22 19:31:49;;;;;;;3.97;1.50;;;;;;;;;;4954799;28;20183;-83
2022/08/22 19:35:18;;;;;;;2.77;1.27;;;;;;;;;;4966750;28;20183;-83
2022/08/22 19:38:53;;;;;;;4.30;1.47;;;;;;;;;;4972816;28;20206;-83
2022/08/22 19:41:58;;;;;;;4.40;1.50;;;;;;;;;;4985461;28;20171;-83
2022/08/22 19:45:17;;;;;;;3.00;1.60;;;;;;;;;;4996263;28;20186;-83
2022/08/22 19:48:32;;;;;;;4.47;2.10;;;;;;;;;;4997815;28;20182;-83
2022/08/22 19:51:37;;;;;;;2.13;1.57;;;;;;;;;;4985816;28;20187;-83
2022/08/22 19:54:52;;;;;;;5.53;1.70;;;;;;;;;;4996756;28;20182;-83
2022/08/22 19:58:18;;;;;;;3.47;1.70;;;;;;;;;;4985439;28;20230;-83